KBGM/BGM METAR and TAF weather

Enter ICAO airport designator
Station Type Date Time Source
KBGM METAR 2018/04/20 08:39 UTC NOAA

KBGM 200839Z AUTO 32011KT 10SM SCT019 BKN025 OVC045 M03/M06 A3007 RMK AO2 SNE05 P0000 T10281061


Station Type Date Time Source
KBGM Decoded METAR 2018/04/20 08:39 UTC NOAA

BINGHAMTON REGIONAL AIRPORT, NY, United States (KBGM) 42-12N 75-59W 492M
Apr 20, 2018 - 04:39 AM EDT / 2018.04.20 0839 UTC
Wind: from the NW (320 degrees) at 13 MPH (11 KT):0
Visibility: 10 mile(s):0
Sky conditions: overcast
Precipitation last hour: A trace
Temperature: 27.0 F (-2.8 C)
Windchill: 15 F (-9 C):1
Dew Point: 21.0 F (-6.1 C)
Relative Humidity: 77%
Pressure (altimeter): 30.07 in. Hg (1018 hPa)
ob: KBGM 200839Z AUTO 32011KT 10SM SCT019 BKN025 OVC045 M03/M06 A3007 RMK AO2 SNE05 P0000 T10281061
cycle: 8

Station Type Date Time Source
KBGM TAF 2018/04/20 06:24 UTC NOAA

TAF KBGM 200522Z 2006/2106 32012G20KT P6SM -SHSN BKN015 OVC025
FM201600 32013G23KT P6SM -SHSN BKN045
FM202300 33012KT P6SM BKN040
FM210400 32004KT P6SM SCT050


Example: see airport list